Terminal Aerodrome Forecast
Issued by NWS Blacksburg, VA

Current Version | Previous Version | Text Only | Print | Product List | Glossary Off
Versions: 1 2 3 4 5 6 7 8 9 10 11 12 13 14 15 16 17 18 19 20 21 22 23 24 25 26

000
FTUS41 KRNK 211933 AAA
TAFBLF
TAF AMD
KBLF 211933Z 2120/2218 27010KT P6SM -SHRA VCTS OVC050CB
     FM212100 27010KT 5SM -TSRA SCT015 OVC035CB
     FM212200 28007KT 4SM -SHRA VCTS OVC030CB
     FM220000 29004KT 2SM SHRA OVC025
     FM220800 35004KT 4SM -SHRA OVC008
     FM221200 VRB03KT 6SM -SHRA BR OVC003=

USA.gov is the U.S. government's official web portal to all federal, state and local government web resources and services.